Tulsa, OK

5:27 PM CDT on August 30, 2014 (GMT -0500)
Claremore Regional | Change Station
CLOSE
Current Station
Airport
Location: Claremore,
Elevation: 725 ft
Nearby Weather Stations

Elev 725 ft 36.29 °N, 95.48 °W | Updated 12 minutes ago

Clear
Clear
90 °F
Feels Like 95 °F
N
10
Wind Variable Wind from SSE

Today
High -- | Low -- °F
--% Chance of Precip.
Yesterday
High -- | Low -- °F
Precip. -- in
6:53 AM 7:53 PM
Waxing Crescent, 25% visible
Pressure 29.90 in
Visibility 10.0 miles
Clouds Clear
Heat Index 95 °F
Dew Point 70 °F
Humidity 52%
Rainfall 0.02 in
Snow Depth Not available.
UV 3 out of 12
Pollen 9.70 out of 12
Ozone Good
Flu Activity Not available.
METAR KGCM 302215Z AUTO 15009KT 10SM CLR 32/21 A2990 RMK AO2

More Conditions Fewer Conditions

Pressure 29.90 in
Visibility 10.0 miles
Clouds Clear
Heat Index 95 °F
Dew Point 70 °F
Humidity 52%
Rainfall 0.02 in
Snow Depth Not available.
UV 3 out of 12
Pollen 9.70 out of 12
Ozone Good
Flu Activity Not available.
METAR KGCM 302215Z AUTO 15009KT 10SM CLR 32/21 A2990 RMK AO2

More Conditions Fewer Conditions

10-Day Weather Forecast

Almanac

Astronomy

Aug. 30, 2014 Rise Set
Actual Time 6:53 AM CDT 7:53 PM CDT
Civil Twilight 6:27 AM CDT 8:20 PM CDT
Nautical Twilight 5:56 AM CDT 8:51 PM CDT
Astronomical Twilight 5:23 AM CDT 9:23 PM CDT
Moon 11:32 AM CDT 10:39 PM CDT
Length of Visible Light 13h 52m
Length of Day
13h 00m
Tomorrow will be 2m 11s shorter.
Waxing Crescent, 25% of the Moon is Illuminated
Today
Waxing Crescent
Sep 2
First Quarter
Sep 8
Full
Sep 15
Last Quarter
Sep 24
New

Today's Extremes

State Highs State Lows

Community

WunderPhotos

Upload Photos

1,748,657 photos uploaded!

WunderBlogs® & News

Nearby

Air Quality

  Air Quality AQ Index Pollutant
Yesterday Moderate
OZONE
Current Good
OZONE
Saturday Moderate
OZONE
Saturday Good
PM2.5
Sunday Moderate
OZONE
Sunday Good
PM2.5
Monday Moderate
OZONE
Monday Good
PM2.5
Tuesday Moderate
OZONE
Tuesday Good
PM2.5
Wednesday Moderate
OZONE
Wednesday Good
PM2.5

Snow Depth

Station Depth Elevation
No new snow has been reported.

Earthquake Activity

City Distance Mag. Time & Date
Guthrie, Oklahoma 86 miles 3.2 10:39 AM CDT
2014-08-29
Perry, Oklahoma 92 miles 3.0 4:52 AM CDT
2014-08-29
Perry, Oklahoma 89 miles 3.1 10:01 PM CDT
2014-08-28
Minimum magnitude displayed is 2.5.

Coastal Water Temperatures

Place Temperature
No Stations Reporting

Nearby Weather Stations